createdAt,value
2023-01-29T01:07:33.386Z,27.75
2023-01-29T01:28:33.068Z,27.66
2023-01-29T01:45:33.255Z,30.11
2023-01-29T01:46:33.132Z,28.05
2023-01-29T01:47:33.182Z,30.65
2023-01-29T01:48:33.138Z,29.37
2023-01-29T01:49:33.196Z,29.64
2023-01-29T01:50:33.160Z,28.68
2023-01-29T01:51:33.100Z,30.29
2023-01-29T01:52:33.166Z,28.13
2023-01-29T01:53:33.119Z,31.09
2023-01-29T01:54:33.102Z,27.87
2023-01-29T01:55:33.126Z,29.55
2023-01-29T01:56:33.143Z,29.26
2023-01-29T01:57:33.146Z,27.29
2023-01-29T01:58:33.153Z,29.04
2023-01-29T01:59:33.119Z,31.85
2023-01-29T02:00:33.157Z,30.39
2023-01-29T02:01:33.134Z,30.92
2023-01-29T02:02:33.176Z,30.23
2023-01-29T02:03:33.133Z,27.26
2023-01-29T02:04:33.162Z,26.83
2023-01-29T02:05:33.103Z,28.05
2023-01-29T02:06:33.153Z,26.28
2023-01-29T02:07:33.187Z,31.15
2023-01-29T02:08:33.239Z,30.53
2023-01-29T02:09:33.125Z,29.76
2023-01-29T02:10:33.096Z,28.92
2023-01-29T02:11:33.144Z,28.68
2023-01-29T02:12:33.167Z,29.24
2023-01-29T02:13:33.121Z,27.42
2023-01-29T02:14:33.176Z,30.10
2023-01-29T02:15:33.169Z,31.19
2023-01-29T02:16:33.148Z,27.60
2023-01-29T02:17:33.188Z,26.10
2023-01-29T02:18:33.144Z,28.37
2023-01-29T02:19:33.140Z,28.94
2023-01-29T02:20:33.153Z,31.81
2023-01-29T02:21:33.158Z,28.10
2023-01-29T02:22:33.161Z,25.34
2023-01-29T02:23:33.155Z,31.60
2023-01-29T02:24:33.254Z,29.29
2023-01-29T02:25:33.196Z,28.06
2023-01-29T02:26:33.127Z,30.33
2023-01-29T02:27:33.151Z,32.29
2023-01-29T02:28:33.152Z,31.00
2023-01-29T02:29:33.145Z,31.08
2023-01-29T02:30:33.164Z,28.53
2023-01-29T02:31:33.190Z,29.55
2023-01-29T02:32:33.301Z,29.81
2023-01-29T02:33:33.178Z,28.07
2023-01-29T02:34:33.138Z,28.67
2023-01-29T02:35:33.202Z,29.37
2023-01-29T02:36:33.160Z,29.87
2023-01-29T02:37:33.211Z,34.32
2023-01-29T02:38:33.165Z,29.66
2023-01-29T02:39:33.182Z,28.12
2023-01-29T02:40:33.184Z,28.28
2023-01-29T02:41:33.201Z,30.40
2023-01-29T02:42:33.214Z,26.27
2023-01-29T02:43:33.202Z,29.73
2023-01-29T02:44:33.215Z,29.25
2023-01-29T02:45:33.224Z,30.11
2023-01-29T02:46:33.174Z,28.75
2023-01-29T02:47:33.178Z,28.86
2023-01-29T02:48:33.182Z,26.59
2023-01-29T02:49:33.199Z,30.05
2023-01-29T02:50:33.201Z,30.00
2023-01-29T02:51:33.171Z,29.45
2023-01-29T02:52:33.213Z,25.24
2023-01-29T02:53:33.166Z,28.07
2023-01-29T02:54:33.177Z,27.12
2023-01-29T02:55:33.187Z,27.06
2023-01-29T02:56:33.180Z,25.60
2023-01-29T02:57:33.193Z,26.15
2023-01-29T02:58:33.168Z,30.27
2023-01-29T02:59:33.165Z,25.00
2023-01-29T03:00:33.170Z,27.39
2023-01-29T03:01:33.170Z,28.49
2023-01-29T03:02:33.228Z,29.21
2023-01-29T03:03:33.132Z,32.35
2023-01-29T03:04:33.149Z,30.43
2023-01-29T03:30:33.148Z,28.55
2023-01-29T03:31:33.292Z,30.50
2023-01-29T03:32:33.163Z,27.32
2023-01-29T03:33:33.310Z,30.12
2023-01-29T03:34:33.168Z,28.72
2023-01-29T03:35:33.212Z,31.10
2023-01-29T03:36:33.163Z,31.65
2023-01-29T03:37:33.206Z,30.15
2023-01-29T03:38:33.175Z,28.92
2023-01-29T03:39:33.134Z,29.57
2023-01-29T03:40:33.153Z,28.02
2023-01-29T03:41:33.137Z,27.90
2023-01-29T03:42:33.140Z,29.21
2023-01-29T03:43:33.226Z,29.41
2023-01-29T03:46:33.129Z,27.64
2023-01-29T03:47:33.135Z,27.76
2023-01-29T03:48:33.157Z,27.09
2023-01-29T03:49:33.087Z,27.01
2023-01-29T03:50:33.104Z,29.91
2023-01-29T03:51:33.061Z,29.69
2023-01-29T03:52:33.093Z,26.04
2023-01-29T03:53:33.076Z,27.19
2023-01-29T03:54:33.045Z,30.61
2023-01-29T04:05:32.983Z,28.83
2023-01-29T04:06:32.956Z,28.93
2023-01-29T04:08:32.957Z,28.73
2023-01-29T04:11:32.939Z,31.05
2023-01-29T04:13:32.940Z,31.49
2023-01-29T04:25:32.851Z,27.91
2023-01-29T04:28:32.837Z,26.94
2023-01-29T04:34:32.761Z,27.29
2023-01-29T04:37:32.775Z,27.31
2023-01-29T04:42:32.676Z,27.85
2023-01-29T04:43:32.682Z,29.90
2023-01-29T04:56:32.682Z,28.01
2023-01-29T04:58:32.688Z,29.76
2023-01-29T04:59:32.698Z,28.71
2023-01-29T05:00:32.710Z,30.01
2023-01-29T05:01:32.747Z,29.54
2023-01-29T05:02:32.726Z,27.67
2023-01-29T05:03:32.712Z,28.28
2023-01-29T05:04:32.732Z,32.11
2023-01-29T05:05:32.693Z,28.32
2023-01-29T05:06:32.719Z,26.19
2023-01-29T05:07:32.752Z,27.95
2023-01-29T05:08:32.768Z,26.15
2023-01-29T05:09:32.767Z,28.76
2023-01-29T05:10:32.737Z,28.18
2023-01-29T05:11:32.775Z,30.92
2023-01-29T05:12:32.779Z,30.31
2023-01-29T05:13:32.784Z,27.37
2023-01-29T05:14:32.768Z,30.65
2023-01-29T05:15:32.790Z,29.10
2023-01-29T05:16:32.780Z,30.55
2023-01-29T05:17:32.819Z,30.29
2023-01-29T05:18:32.826Z,29.14
2023-01-29T05:19:32.800Z,28.54
2023-01-29T05:20:32.828Z,29.25
2023-01-29T05:21:32.840Z,31.11
2023-01-29T05:22:32.893Z,26.69
2023-01-29T05:23:32.863Z,30.50
2023-01-29T05:24:32.876Z,31.01
2023-01-29T05:25:32.930Z,28.84
2023-01-29T05:26:32.869Z,31.46
2023-01-29T05:27:32.892Z,29.27
2023-01-29T05:28:32.950Z,28.20
2023-01-29T05:29:32.947Z,28.25
2023-01-29T05:30:32.973Z,27.75
2023-01-29T05:31:32.959Z,26.43
2023-01-29T05:32:32.916Z,28.91
2023-01-29T05:33:32.924Z,32.42
2023-01-29T05:34:32.985Z,30.88
2023-01-29T05:35:32.969Z,29.19
2023-01-29T05:36:32.999Z,28.81
2023-01-29T05:37:33.001Z,28.07
2023-01-29T05:38:32.960Z,29.48
2023-01-29T05:39:32.970Z,30.33
2023-01-29T05:40:33.007Z,28.38
2023-01-29T05:41:32.945Z,28.54
2023-01-29T05:42:33.001Z,27.73
2023-01-29T05:43:32.998Z,25.00
2023-01-29T05:44:33.022Z,27.82
2023-01-29T05:45:33.052Z,28.49
2023-01-29T05:46:33.034Z,27.75
2023-01-29T05:47:33.045Z,27.14
2023-01-29T05:48:33.036Z,30.83
2023-01-29T05:49:33.036Z,28.91
2023-01-29T05:50:33.056Z,28.83
2023-01-29T05:51:33.046Z,28.40
2023-01-29T05:52:33.043Z,28.60
2023-01-29T05:53:33.058Z,26.66
2023-01-29T05:54:33.063Z,26.81
2023-01-29T05:55:33.078Z,29.07
2023-01-29T05:56:33.089Z,30.63
2023-01-29T05:57:33.084Z,30.14
2023-01-29T05:58:33.103Z,29.42
2023-01-29T05:59:33.057Z,25.24
2023-01-29T06:00:33.079Z,30.01
2023-01-29T06:01:33.122Z,30.46
2023-01-29T06:02:33.103Z,29.57
2023-01-29T06:03:33.082Z,32.27
2023-01-29T06:04:33.095Z,32.04
2023-01-29T06:05:33.216Z,30.12
2023-01-29T06:06:33.139Z,31.00
2023-01-29T06:07:33.116Z,30.14
2023-01-29T06:08:33.087Z,29.56
2023-01-29T06:09:33.101Z,28.56
2023-01-29T06:10:33.110Z,27.44
2023-01-29T06:11:33.123Z,27.92
2023-01-29T06:12:33.145Z,29.41
2023-01-29T06:13:33.141Z,33.65
2023-01-29T06:14:33.162Z,29.17
2023-01-29T06:15:33.175Z,29.56
2023-01-29T06:16:33.236Z,32.32
2023-01-29T06:18:33.195Z,26.64
2023-01-29T06:19:33.174Z,33.02
2023-01-29T06:20:33.164Z,28.10
2023-01-29T06:21:33.201Z,31.32
2023-01-29T12:30:41.786Z,106.21
2023-01-29T12:31:41.829Z,105.01
2023-01-29T12:32:41.847Z,107.15
2023-01-29T12:33:41.903Z,102.24
2023-01-29T12:34:42.024Z,106.93
2023-01-29T12:35:42.132Z,104.60
2023-01-29T12:36:42.122Z,97.36
2023-01-29T12:38:42.188Z,95.44
2023-01-29T13:00:42.899Z,87.87
2023-01-29T13:01:42.926Z,86.36
2023-01-29T13:02:42.935Z,89.26
2023-01-29T13:03:42.899Z,90.11
2023-01-29T13:04:42.991Z,88.82
2023-01-29T13:06:43.070Z,83.49
2023-01-29T13:07:43.109Z,83.80
2023-01-29T13:08:43.205Z,85.05
2023-01-29T13:09:43.207Z,83.34
2023-01-29T13:10:43.245Z,82.16
2023-01-29T13:21:43.826Z,64.33
2023-01-29T13:22:43.781Z,74.21
2023-01-29T13:23:43.809Z,72.21
2023-01-29T13:24:49.966Z,71.76
2023-01-29T13:26:43.882Z,66.08
2023-01-29T13:27:43.837Z,72.13
2023-01-29T13:28:43.772Z,65.01
2023-01-29T13:29:43.780Z,62.57
2023-01-29T13:30:43.801Z,64.86
2023-01-29T13:31:43.753Z,59.18
2023-01-29T13:32:43.771Z,60.45
2023-01-29T13:33:43.762Z,63.34
2023-01-29T13:34:43.765Z,70.08
2023-01-29T13:35:43.754Z,62.20
2023-01-29T13:36:43.729Z,59.90
2023-01-29T13:37:43.725Z,57.59
2023-01-29T13:38:43.734Z,54.37
2023-01-29T13:39:43.694Z,73.77
2023-01-29T13:40:43.753Z,54.92
2023-01-29T13:41:43.706Z,62.20
2023-01-29T13:42:43.724Z,60.04
2023-01-29T13:43:43.666Z,52.92
2023-01-29T13:44:43.660Z,53.64
2023-01-29T13:45:43.823Z,44.53
2023-01-29T13:46:43.644Z,47.29
2023-01-29T13:47:43.698Z,49.26
2023-01-29T13:48:43.720Z,52.19
2023-01-29T13:49:43.729Z,57.04
2023-01-29T13:50:43.787Z,49.71
2023-01-29T13:51:43.767Z,49.73
2023-01-29T13:52:43.838Z,51.18
2023-01-29T13:53:43.890Z,48.09
2023-01-29T13:54:43.946Z,44.41
2023-01-29T13:55:44.005Z,43.53
2023-01-29T13:56:44.031Z,43.01
2023-01-29T13:57:44.075Z,44.15
2023-01-29T13:58:44.137Z,44.80
2023-01-29T13:59:44.188Z,42.08
2023-01-29T14:00:44.254Z,37.64
2023-01-29T14:01:44.261Z,38.05
2023-01-29T14:02:44.443Z,37.09
2023-01-29T14:04:02.219Z,40.30
2023-01-29T14:04:45.396Z,38.93
2023-01-29T14:05:44.756Z,38.24
2023-01-29T14:06:44.410Z,39.52
2023-01-29T14:07:44.331Z,34.36
2023-01-29T14:08:44.367Z,34.72
2023-01-29T14:09:44.344Z,31.21
2023-01-29T14:10:44.324Z,33.73
2023-01-29T14:11:44.329Z,30.31
2023-01-29T14:12:44.348Z,32.56
2023-01-29T14:13:44.402Z,30.34
2023-01-29T14:14:44.480Z,29.69
2023-01-29T14:15:44.563Z,29.24
2023-01-29T14:16:44.671Z,33.72
2023-01-29T14:17:44.690Z,32.63
2023-01-29T14:18:44.733Z,29.56
2023-01-29T14:19:44.802Z,31.97
2023-01-29T14:20:46.220Z,30.48
2023-01-29T14:21:44.852Z,29.45
2023-01-29T14:22:44.907Z,34.98
2023-01-29T14:23:44.999Z,31.84
2023-01-29T14:24:45.023Z,29.44
2023-01-29T14:25:45.077Z,30.52
2023-01-29T14:26:45.216Z,28.69
2023-01-29T14:28:45.174Z,26.79
2023-01-29T14:29:45.206Z,30.51
2023-01-29T14:30:45.791Z,31.27
2023-01-29T14:31:45.300Z,26.92
2023-01-29T14:34:45.223Z,25.35
2023-01-29T14:35:45.235Z,30.66
2023-01-29T14:36:45.293Z,31.01
2023-01-29T14:37:45.330Z,27.26
2023-01-29T14:38:45.339Z,28.47
2023-01-29T14:39:45.275Z,28.32
2023-01-29T14:40:45.320Z,30.51
2023-01-29T14:41:45.285Z,28.97
2023-01-29T14:42:45.367Z,27.06
2023-01-29T14:43:45.488Z,26.73
2023-01-29T14:44:45.571Z,30.25
2023-01-29T14:45:45.777Z,25.94
2023-01-29T14:46:45.560Z,27.29
2023-01-29T14:47:45.600Z,26.64
2023-01-29T14:48:45.651Z,28.89
2023-01-29T14:49:45.729Z,25.79
2023-01-29T14:50:45.755Z,26.27
2023-01-29T14:51:45.754Z,28.32
2023-01-29T14:52:45.748Z,28.53
2023-01-29T14:53:45.785Z,27.49
2023-01-29T14:54:45.784Z,26.32
2023-01-29T14:55:45.855Z,29.64
2023-01-29T14:56:45.889Z,25.21
2023-01-29T14:57:45.857Z,26.97
2023-01-29T14:58:45.907Z,25.45
2023-01-29T14:59:45.941Z,25.39
2023-01-29T15:00:45.925Z,27.50
2023-01-29T15:01:46.022Z,29.00
2023-01-29T15:02:46.016Z,26.77
2023-01-29T15:03:45.966Z,26.54
2023-01-29T15:04:46.008Z,26.02
2023-01-29T15:05:46.055Z,26.13
2023-01-29T15:06:46.024Z,25.36
2023-01-29T15:07:46.072Z,26.19
2023-01-29T15:08:46.064Z,26.25
2023-01-29T15:09:46.141Z,26.05
2023-01-29T15:10:46.146Z,26.71
2023-01-29T15:11:46.160Z,26.00
2023-01-29T15:12:46.171Z,26.44
2023-01-29T15:13:46.209Z,25.19
2023-01-29T15:14:46.175Z,27.13
2023-01-29T15:15:46.286Z,25.15
2023-01-29T15:16:46.232Z,25.23
2023-01-29T15:17:46.256Z,26.31
2023-01-29T15:18:46.279Z,26.18
2023-01-29T15:19:46.317Z,25.97
2023-01-29T15:20:46.380Z,25.61
2023-01-29T15:21:46.370Z,26.82
2023-01-29T15:22:46.375Z,26.77
2023-01-29T15:23:46.379Z,26.72
2023-01-29T15:24:46.440Z,25.21
2023-01-29T15:25:46.459Z,26.43
2023-01-29T15:26:46.487Z,26.56
2023-01-29T15:27:46.506Z,26.54
2023-01-29T15:28:51.840Z,26.69
2023-01-29T15:29:47.507Z,26.80
2023-01-29T15:30:46.634Z,26.95
2023-01-29T15:31:47.732Z,26.06
2023-01-29T15:32:46.465Z,26.61
2023-01-29T15:33:46.524Z,26.44
2023-01-29T15:34:46.548Z,25.00
2023-01-29T15:35:48.327Z,27.09
2023-01-29T15:36:46.471Z,27.73
2023-01-29T15:37:46.492Z,25.64
2023-01-29T15:38:46.438Z,26.54
2023-01-29T17:39:51.764Z,28.57
2023-01-29T17:40:51.783Z,26.77
2023-01-29T17:41:51.890Z,29.16
2023-01-29T17:42:51.879Z,28.10
2023-01-29T17:43:52.019Z,27.90
2023-01-29T17:44:52.048Z,26.72
2023-01-29T17:45:52.160Z,31.00
2023-01-29T17:46:52.138Z,32.63
2023-01-29T17:47:52.222Z,28.99
2023-01-29T17:48:52.261Z,28.70
2023-01-29T17:49:52.348Z,28.96
2023-01-29T17:50:52.397Z,27.29
2023-01-29T17:51:52.416Z,28.05
2023-01-29T17:52:52.488Z,26.62
2023-01-29T17:53:52.571Z,27.00
2023-01-29T17:54:52.613Z,27.39
2023-01-29T17:55:52.696Z,25.97
2023-01-29T17:56:52.725Z,28.68
2023-01-29T17:57:52.812Z,28.56
2023-01-29T17:58:52.891Z,28.82
2023-01-29T17:59:52.905Z,28.21
2023-01-29T18:00:52.989Z,28.76
2023-01-29T18:01:53.093Z,29.84
2023-01-29T18:02:53.113Z,29.42
2023-01-29T18:03:53.208Z,30.33
2023-01-29T18:04:53.184Z,27.27
2023-01-29T18:05:53.276Z,26.11
2023-01-29T18:06:53.372Z,28.68
2023-01-29T18:07:53.387Z,27.32
2023-01-29T18:08:53.419Z,26.30
2023-01-29T18:09:53.518Z,26.00
2023-01-29T18:10:53.612Z,28.52
2023-01-29T18:11:53.621Z,27.07
2023-01-29T18:12:53.791Z,26.55
2023-01-29T18:13:53.830Z,29.57
2023-01-29T18:14:53.934Z,27.93
2023-01-29T18:15:54.030Z,26.96
2023-01-29T18:16:56.000Z,28.60
2023-01-29T18:17:53.962Z,28.32
2023-01-29T18:18:53.925Z,28.28
2023-01-29T18:19:53.961Z,29.17
2023-01-29T18:20:53.972Z,30.75
2023-01-29T18:21:53.946Z,29.21
2023-01-29T18:22:54.036Z,25.07
2023-01-29T18:23:53.995Z,31.59
2023-01-29T18:24:53.913Z,27.97
2023-01-29T18:25:53.875Z,29.38
2023-01-29T18:26:53.865Z,28.67
2023-01-29T18:27:53.862Z,28.62
2023-01-29T18:28:53.831Z,26.46
2023-01-29T18:29:53.904Z,27.47
2023-01-29T18:30:53.918Z,27.28
2023-01-29T18:31:53.908Z,27.80
2023-01-29T18:32:53.829Z,25.46
2023-01-29T18:33:53.827Z,25.50
2023-01-29T18:34:53.823Z,27.40
2023-01-29T18:35:53.850Z,27.43
2023-01-29T18:36:53.793Z,31.24
2023-01-29T18:37:53.799Z,28.40
2023-01-29T18:38:53.792Z,30.10
2023-01-29T18:39:53.811Z,30.09
2023-01-29T18:40:53.766Z,31.70
2023-01-29T18:41:53.774Z,28.93
2023-01-29T18:42:53.753Z,31.28
2023-01-29T18:43:53.794Z,28.85
2023-01-29T18:44:53.778Z,28.67
2023-01-29T18:45:53.769Z,30.42
2023-01-29T18:46:53.761Z,32.34
2023-01-29T18:47:53.764Z,31.22
2023-01-29T18:48:53.693Z,31.66
2023-01-29T18:49:53.722Z,29.51
2023-01-29T18:50:53.792Z,28.44
2023-01-29T18:51:53.814Z,29.04
2023-01-29T18:52:53.908Z,29.36
2023-01-29T18:53:53.964Z,28.12
2023-01-29T18:54:54.042Z,28.07
2023-01-29T18:55:54.069Z,28.15
2023-01-29T18:57:07.661Z,27.44
2023-01-29T18:58:28.538Z,27.68
2023-01-29T18:58:55.320Z,27.83
2023-01-29T18:59:54.081Z,27.89
2023-01-29T19:00:54.105Z,28.06
2023-01-29T19:01:54.079Z,27.97
2023-01-29T19:02:54.080Z,29.34
2023-01-29T19:03:54.075Z,29.44
2023-01-29T19:04:54.028Z,26.28
2023-01-29T19:05:54.006Z,27.27
2023-01-29T19:06:54.046Z,31.00
2023-01-29T19:07:54.030Z,28.34
2023-01-29T19:08:54.008Z,32.08
2023-01-29T19:09:54.019Z,26.95
2023-01-29T19:10:54.387Z,26.18
2023-01-29T19:11:53.980Z,28.26
2023-01-29T19:12:54.039Z,29.08
2023-01-29T19:13:54.152Z,28.65
2023-01-29T19:14:54.215Z,30.48
2023-01-29T19:15:54.216Z,26.72
2023-01-29T19:16:54.279Z,29.10
2023-01-29T19:17:54.341Z,30.81
2023-01-29T19:18:54.377Z,27.00
2023-01-29T19:19:54.436Z,28.16
2023-01-29T19:20:54.506Z,25.98
2023-01-29T19:21:54.530Z,31.97
2023-01-29T19:22:54.620Z,30.96
2023-01-29T19:23:54.676Z,31.34
2023-01-29T19:24:54.707Z,31.70
2023-01-29T19:25:54.796Z,28.67
2023-01-29T19:26:54.899Z,29.53
2023-01-29T19:27:54.914Z,33.81
2023-01-29T19:28:54.965Z,31.80
2023-01-29T19:29:55.024Z,29.47
2023-01-29T19:30:55.096Z,28.02
2023-01-29T19:31:55.115Z,32.73
2023-01-29T19:32:55.129Z,32.42
2023-01-29T19:33:55.200Z,29.72
2023-01-29T19:34:55.266Z,30.95
2023-01-29T19:35:55.319Z,29.04
2023-01-29T19:36:55.388Z,28.10
2023-01-29T19:37:55.473Z,31.89
2023-01-29T19:38:55.590Z,32.45
2023-01-29T19:39:55.672Z,27.86
2023-01-29T19:40:55.738Z,31.94
2023-01-29T19:41:55.680Z,33.26
2023-01-29T19:42:55.798Z,32.02
2023-01-29T19:43:55.878Z,29.48
2023-01-29T19:44:55.814Z,28.82
2023-01-29T19:45:55.906Z,28.95
2023-01-29T19:46:55.912Z,28.20
2023-01-29T19:47:55.986Z,31.32
2023-01-29T19:48:56.039Z,28.06
2023-01-29T19:49:56.093Z,29.19
2023-01-29T19:50:56.155Z,30.45
2023-01-29T19:51:56.204Z,28.30
2023-01-29T19:52:56.233Z,27.10
2023-01-29T19:53:56.275Z,28.73
2023-01-29T19:54:56.363Z,26.36
2023-01-29T19:55:56.356Z,31.42
2023-01-29T19:56:56.417Z,29.44
2023-01-29T19:57:56.485Z,31.37
2023-01-29T19:58:56.527Z,29.10
2023-01-29T19:59:56.588Z,32.50
2023-01-29T20:00:56.675Z,26.52
2023-01-29T20:01:56.914Z,26.36
2023-01-29T20:02:56.715Z,27.71
2023-01-29T20:03:56.773Z,30.79
2023-01-29T20:04:56.831Z,26.77
2023-01-29T20:05:56.867Z,28.98
2023-01-29T20:06:56.913Z,28.72
2023-01-29T20:07:56.947Z,28.57
2023-01-29T20:08:56.998Z,28.99
2023-01-29T20:09:57.009Z,27.47
2023-01-29T20:10:57.087Z,28.30
2023-01-29T20:11:57.136Z,30.42
2023-01-29T20:12:57.159Z,30.45
2023-01-29T20:13:57.202Z,31.99
2023-01-29T20:14:57.232Z,27.04
2023-01-29T20:15:57.342Z,29.16
2023-01-29T20:16:57.477Z,27.79
2023-01-29T20:17:57.427Z,29.59
2023-01-29T20:19:14.172Z,31.03
2023-01-29T20:19:58.473Z,31.21
2023-01-29T20:20:57.508Z,29.66
2023-01-29T20:21:57.449Z,31.78
2023-01-29T20:22:57.466Z,32.83
2023-01-29T20:23:57.473Z,31.05
2023-01-29T20:24:57.474Z,26.00
2023-01-29T20:25:57.424Z,30.70
2023-01-29T20:26:57.407Z,27.19
2023-01-29T20:27:57.424Z,25.00
2023-01-29T20:28:57.497Z,29.18
2023-01-29T20:29:57.559Z,31.79
2023-01-29T20:30:57.617Z,26.52
2023-01-29T20:31:57.614Z,28.07
2023-01-29T20:32:57.671Z,27.93
2023-01-29T20:33:57.738Z,29.45
2023-01-29T20:34:57.774Z,29.41
2023-01-29T20:35:57.887Z,29.54
2023-01-29T20:36:57.893Z,30.31
2023-01-29T20:37:57.983Z,27.24
2023-01-29T20:38:57.979Z,27.61
2023-01-29T20:39:58.025Z,26.76
2023-01-29T20:40:58.044Z,29.32
2023-01-29T20:41:58.144Z,28.84
2023-01-29T20:42:58.199Z,28.97
2023-01-29T20:43:58.216Z,30.96
2023-01-29T20:44:58.300Z,28.31
2023-01-29T20:45:58.355Z,28.93
2023-01-29T20:46:59.667Z,31.09
2023-01-29T20:47:58.335Z,31.33
2023-01-29T20:48:58.345Z,29.41
2023-01-29T20:49:58.344Z,29.22
2023-01-29T20:50:58.363Z,32.01
2023-01-29T20:51:58.395Z,30.30
2023-01-29T20:52:58.325Z,28.80
2023-01-29T20:53:58.336Z,29.61
2023-01-29T20:54:58.340Z,27.69
2023-01-29T20:55:58.290Z,26.31
2023-01-29T20:56:58.288Z,27.59
2023-01-29T20:58:06.378Z,29.02
2023-01-29T20:58:59.302Z,29.33
2023-01-29T20:59:58.297Z,29.19
2023-01-29T21:00:58.318Z,28.09
2023-01-29T21:01:58.300Z,26.12
2023-01-29T21:02:58.285Z,30.54
2023-01-29T21:03:58.249Z,29.10
2023-01-29T21:04:58.247Z,27.10
2023-01-29T21:05:58.252Z,30.94
2023-01-29T21:06:58.268Z,27.42
2023-01-29T21:07:58.319Z,29.45
2023-01-29T21:08:58.364Z,26.08
2023-01-29T21:09:58.428Z,25.68
2023-01-29T21:10:58.531Z,25.04
2023-01-29T21:11:58.550Z,26.03
2023-01-29T21:12:58.622Z,30.12
2023-01-29T21:13:58.620Z,28.37
2023-01-29T21:14:58.682Z,28.84
2023-01-29T21:15:58.774Z,30.03
2023-01-29T21:16:58.762Z,27.89
2023-01-29T21:17:58.854Z,30.23
2023-01-29T21:18:58.914Z,27.67
2023-01-29T21:19:58.961Z,27.83
2023-01-29T21:20:59.052Z,30.30
2023-01-29T21:21:59.117Z,28.94
2023-01-29T21:22:59.144Z,27.24
2023-01-29T21:23:59.196Z,28.55
2023-01-29T21:24:59.246Z,29.07
2023-01-29T21:25:59.321Z,28.13
2023-01-29T21:26:59.416Z,27.36
2023-01-29T21:27:59.372Z,31.23
2023-01-29T21:28:59.439Z,31.14
2023-01-29T21:29:59.487Z,31.54
2023-01-29T21:30:59.598Z,27.19
2023-01-29T21:31:59.622Z,33.62
2023-01-29T21:32:59.615Z,30.79
2023-01-29T21:33:59.678Z,28.76
2023-01-29T21:34:59.724Z,30.43
2023-01-29T21:35:59.791Z,27.79
2023-01-29T21:36:59.838Z,28.91
2023-01-29T21:37:59.928Z,27.15
2023-01-29T21:38:59.945Z,27.53
2023-01-29T21:39:59.952Z,29.40
2023-01-29T21:41:00.023Z,31.27
2023-01-29T21:42:00.101Z,29.22
2023-01-29T21:43:00.142Z,28.44
2023-01-29T21:44:00.175Z,27.14
2023-01-29T21:45:00.251Z,26.09
2023-01-29T21:46:00.341Z,26.74
2023-01-29T21:47:00.384Z,25.97
2023-01-29T21:48:00.447Z,27.08
2023-01-29T21:49:00.453Z,25.00
2023-01-29T21:50:00.519Z,26.47
2023-01-29T21:51:00.613Z,29.52
2023-01-29T21:52:00.641Z,30.58
2023-01-29T21:53:00.726Z,29.67
2023-01-29T21:54:00.736Z,30.57
2023-01-29T21:55:00.847Z,30.73
2023-01-29T21:56:00.899Z,27.99
2023-01-29T21:57:00.899Z,26.36
2023-01-29T21:58:00.995Z,28.14
2023-01-29T21:59:01.075Z,29.68
2023-01-29T22:01:35.908Z,28.39
2023-01-29T22:02:02.245Z,28.51
2023-01-29T22:03:01.241Z,28.84
2023-01-29T22:04:01.165Z,27.10
2023-01-29T22:05:19.708Z,28.78
2023-01-29T22:06:02.153Z,28.62
2023-01-29T22:07:01.138Z,28.94
2023-01-29T22:08:01.139Z,29.19
2023-01-29T22:09:01.161Z,29.62
2023-01-29T22:10:01.164Z,26.15
2023-01-29T22:11:01.100Z,30.14
2023-01-29T22:12:01.099Z,28.42
2023-01-29T22:13:01.130Z,29.82
2023-01-29T22:14:01.114Z,27.45
2023-01-29T22:15:01.188Z,27.12
2023-01-29T22:16:01.248Z,29.18
2023-01-29T22:17:01.358Z,26.62
2023-01-29T22:18:01.362Z,28.05
2023-01-29T22:19:01.420Z,25.74
2023-01-29T22:20:01.474Z,26.08
2023-01-29T22:21:01.524Z,27.73
2023-01-29T22:22:01.592Z,30.80
2023-01-29T22:23:01.660Z,30.65
2023-01-29T22:24:01.681Z,29.51
2023-01-29T22:25:01.771Z,27.56
2023-01-29T22:26:01.818Z,29.68
2023-01-29T22:27:01.836Z,29.95
2023-01-29T22:28:01.956Z,27.90
2023-01-29T22:29:01.952Z,33.11
2023-01-29T22:30:02.047Z,30.53
2023-01-29T22:31:02.115Z,25.27
2023-01-29T22:32:02.165Z,29.38
2023-01-29T22:33:02.148Z,29.44
2023-01-29T22:34:02.241Z,27.66
2023-01-29T22:35:02.269Z,27.59
2023-01-29T22:36:02.362Z,28.21
2023-01-29T22:37:02.372Z,29.04
2023-01-29T22:38:02.427Z,27.39
2023-01-29T22:39:02.480Z,27.92
2023-01-29T22:40:02.522Z,30.61
2023-01-29T22:41:02.594Z,29.75
2023-01-29T22:42:02.637Z,28.69
2023-01-29T22:43:02.663Z,31.20
2023-01-29T22:44:02.724Z,29.82
2023-01-29T22:45:02.820Z,29.03
2023-01-29T22:46:02.860Z,26.32
2023-01-29T22:47:02.853Z,27.85
2023-01-29T22:48:02.951Z,28.61
2023-01-29T22:49:03.000Z,28.10
2023-01-29T22:50:03.071Z,28.36
2023-01-29T22:51:03.057Z,29.98
2023-01-29T22:52:03.102Z,28.06
2023-01-29T22:53:03.183Z,28.43
2023-01-29T22:54:03.240Z,27.39
2023-01-29T22:55:03.256Z,30.75
2023-01-29T22:56:03.307Z,29.76
2023-01-29T22:57:03.360Z,27.92
2023-01-29T22:59:03.459Z,29.79
2023-01-29T23:00:03.541Z,28.76
2023-01-29T23:01:03.595Z,30.27
2023-01-29T23:02:03.669Z,25.00
2023-01-29T23:04:03.772Z,31.29
2023-01-29T23:05:03.838Z,31.44
2023-01-29T23:06:03.899Z,32.24
2023-01-29T23:07:03.939Z,25.00
2023-01-29T23:08:03.960Z,28.63
2023-01-29T23:09:04.051Z,25.85
2023-01-29T23:10:04.314Z,30.33
2023-01-29T23:11:04.174Z,33.85
2023-01-29T23:12:04.186Z,31.52
2023-01-29T23:13:04.292Z,29.62
2023-01-29T23:14:04.301Z,29.74
2023-01-29T23:15:04.423Z,29.40
2023-01-29T23:17:04.500Z,31.96
2023-01-29T23:18:04.587Z,31.79
2023-01-29T23:19:04.591Z,30.13
2023-01-29T23:20:04.700Z,25.36
2023-01-29T23:21:04.756Z,25.77
2023-01-29T23:22:04.776Z,27.85
2023-01-29T23:23:04.866Z,27.85
2023-01-29T23:24:05.494Z,26.77
2023-01-29T23:25:04.939Z,29.98
2023-01-29T23:26:05.456Z,26.18
2023-01-29T23:27:05.066Z,27.93
2023-01-29T23:28:05.160Z,29.96
2023-01-29T23:29:05.221Z,27.10
2023-01-29T23:30:05.271Z,26.18
2023-01-29T23:31:05.447Z,29.24
2023-01-29T23:32:05.405Z,25.89
2023-01-29T23:33:05.450Z,29.37
2023-01-29T23:34:05.523Z,31.09
2023-01-29T23:35:05.550Z,28.66
2023-01-29T23:36:05.642Z,25.80
2023-01-29T23:37:05.673Z,29.25
2023-01-29T23:38:05.760Z,27.81
2023-01-29T23:39:05.764Z,30.38
2023-01-29T23:40:05.799Z,29.89
2023-01-29T23:41:05.902Z,31.54
2023-01-29T23:42:05.951Z,32.26
2023-01-29T23:43:06.035Z,32.23
2023-01-29T23:44:06.021Z,27.50
2023-01-29T23:45:06.151Z,27.56
2023-01-29T23:46:06.215Z,31.05
2023-01-29T23:47:06.227Z,27.26
2023-01-29T23:48:06.334Z,31.88
2023-01-29T23:49:06.372Z,28.97
2023-01-29T23:50:06.418Z,27.67
2023-01-29T23:51:06.493Z,28.18
2023-01-29T23:52:06.567Z,31.85
2023-01-29T23:53:06.606Z,31.06
2023-01-29T23:54:06.682Z,28.87
2023-01-29T23:56:06.727Z,26.59
2023-01-29T23:57:06.874Z,27.67
